Dongsha Dao, China
Current Conditions -  °F | °C
As of 2:00 PM on Saturday 25 Oct 2014 (Local Time) from ZGOW Reporting Station
Clear Clear  
Wind Chill: 84°   Ceiling: Unl
Heat Index: 85°   Visibility: 6mi
Dew Point: 63°   Wind: 4mph
Humidity: 48%   Direction: NA
Pressure: 30"   Gusts: NA
Location:  20.67°N, 116.72°E
Report Text: ZGOW 250600Z VRB02MPS CAVOK 29/17 Q1016 NOSIG
Loading
Personal Weather Stations






























Interactive Weather Map
Tropical Storm Tracking
New forecast layout! Learn more

10-Day Weather Forecast

Advertisements
Track Severe Weather on mobile